Grangeville, ID (83530)

10:46 AM PST on January 21, 2017 (GMT -0800)
Elk St. | | Change Station

Elev 3460 ft 45.92 °N, 116.13 °W | Updated 3 seconds ago

Overcast
Overcast
40.1 °F
Feels Like 35 °F
N
8.0
Wind Variable Wind from SSE
Gusts 15.0 mph

Today
High -- | Low -- °F
--% Chance of Precip.
Yesterday
High -- | Low -- °F
Precip. -- in
Pressure 29.46 in
Visibility 10.0 miles
Clouds Overcast 6000 ft
Windchill 35 °F
Dew Point 30 °F
Humidity 66%
Rainfall 0.00 in
Snow Depth Not available.
7:17 AM 4:34 PM
Waning Crescent, 33% visible
METAR KGIC 211835Z AUTO 14005KT 10SM OVC060 00/M01 A2946 RMK AO1
Pressure 29.46 in
Visibility 10.0 miles
Clouds Overcast 6000 ft
Windchill 35 °F
Dew Point 30 °F
Humidity 66%
Rainfall 0.00 in
Snow Depth Not available.
7:17 AM 4:34 PM
Waning Crescent, 33% visible
METAR KGIC 211835Z AUTO 14005KT 10SM OVC060 00/M01 A2946 RMK AO1

Get Your Daily Forecast Email!

Thanks for signing up!

Be on the lookout for a verification email in your inbox.

You'll start receiving the daily forecast at 8 AM.

×

10-Day Weather Forecast

Almanac

Astronomy

Jan. 21, 2017 Rise Set
Actual Time
Civil Twilight
Nautical Twilight
Astronomical Twilight
Moon
Length of Visible Light
Length of Day
Tomorrow will be .
, % of the Moon is Illuminated

Today's Extremes

State Highs State Lows

Community

WunderPhotos

Upload Photos

1,962,540 photos uploaded!

WunderBlog® & News

Nearby

Air Quality

  Air Quality AQ Index Pollutant
Not available.

Snow Depth

Station Depth Elevation

Earthquake Activity

City Distance Mag. Time & Date
Minimum magnitude displayed is 2.5.

Coastal Water Temperatures

Place Temperature

Stations

Nearby Weather Stations

Station Location Temp. Windchill Dew Point Humidity Wind Precip. Elev Updated Type
                   

Watches & Warnings

There are currently no watches in effect.